Time;durP1;ratioP1;P1;durP2;ratioP2;P2;SDS_P1;SDS_P2;PMS_P1;PMS_P2;Temp;Humidity;BMP_temperature;BMP_pressure;BME280_temperature;BME280_humidity;BME280_pressure;Samples;Min_cycle;Max_cycle;Signal;HPM_P1;HPM_P2
2022/07/19 00:00:51;;;;;;;3.97;2.78;;;;;;;26.91;45.79;101456.81;5091430;28;20048;-79
2022/07/19 00:03:20;;;;;;;3.38;2.70;;;;;;;26.92;45.96;101455.81;5092598;28;20051;-79
2022/07/19 00:05:49;;;;;;;4.45;2.53;;;;;;;26.93;45.94;101454.78;5093141;28;20055;-79
2022/07/19 00:08:16;;;;;;;4.88;2.55;;;;;;;26.95;46.06;101462.78;5091344;28;20048;-79
2022/07/19 00:10:44;;;;;;;3.53;2.78;;;;;;;26.96;46.05;101456.31;5092424;28;20051;-79
2022/07/19 00:13:11;;;;;;;4.25;2.50;;;;;;;26.96;45.82;101454.44;5092581;28;20040;-79
2022/07/19 00:15:39;;;;;;;3.72;2.92;;;;;;;26.97;45.99;101455.28;5092401;28;20044;-79
2022/07/19 00:18:07;;;;;;;3.50;2.55;;;;;;;26.97;46.16;101452.56;5092533;28;20048;-79
2022/07/19 00:20:34;;;;;;;3.40;2.53;;;;;;;26.99;46.25;101461.44;5090954;28;20056;-78
2022/07/19 00:23:02;;;;;;;3.83;2.97;;;;;;;26.98;46.22;101460.59;5091512;28;20048;-78
2022/07/19 00:25:29;;;;;;;3.75;2.70;;;;;;;26.99;46.17;101454.13;5092278;28;20043;-79
2022/07/19 00:27:56;;;;;;;3.28;2.40;;;;;;;27.01;46.14;101459.38;5092596;28;20155;-79
2022/07/19 00:30:24;;;;;;;5.15;2.92;;;;;;;27.02;46.29;101458.34;5092630;28;20052;-79
2022/07/19 00:32:51;;;;;;;5.72;2.85;;;;;;;27.02;46.18;101455.63;5085527;28;20475;-79
2022/07/19 00:35:19;;;;;;;6.30;3.20;;;;;;;27.02;46.20;101453.78;5092992;28;20036;-79
2022/07/19 00:37:46;;;;;;;4.18;2.72;;;;;;;27.03;46.19;101449.22;5096270;28;20097;-78
2022/07/19 00:40:22;;;;;;;3.28;2.67;;;;;;;27.04;46.00;101445.47;5095723;28;20048;-78
2022/07/19 00:42:51;;;;;;;3.25;2.53;;;;;;;27.04;46.34;101446.31;5096034;28;20054;-78
2022/07/19 00:45:18;;;;;;;3.20;2.50;;;;;;;27.05;46.19;101447.16;5096036;28;20044;-78
2022/07/19 00:47:46;;;;;;;4.03;2.75;;;;;;;27.06;46.33;101455.16;5096208;28;20047;-78
2022/07/19 00:50:13;;;;;;;3.78;2.95;;;;;;;27.06;46.13;101448.84;5096418;28;20048;-79
2022/07/19 00:52:45;;;;;;;4.18;2.58;;;;;;;27.08;46.23;101446.81;5094542;28;20052;-79
2022/07/19 00:55:13;;;;;;;4.00;2.85;;;;;;;27.08;46.23;101454.97;5094661;28;20047;-79
2022/07/19 00:57:41;;;;;;;3.38;2.47;;;;;;;27.09;46.39;101457.50;5096656;28;20048;-79
2022/07/19 01:00:09;;;;;;;3.92;2.80;;;;;;;27.08;46.62;101453.09;5095724;28;20352;-79
2022/07/19 01:02:37;;;;;;;3.33;2.80;;;;;;;27.10;46.39;101452.97;5095485;28;20051;-79
2022/07/19 01:05:06;;;;;;;5.45;2.80;;;;;;;27.12;46.61;101442.78;5095656;28;20040;-78
2022/07/19 01:07:35;;;;;;;6.35;3.28;;;;;;;27.11;46.55;101446.53;5095325;28;20048;-78
2022/07/19 01:10:06;;;;;;;3.47;2.70;;;;;;;27.11;46.36;101452.81;5095075;28;20056;-78
2022/07/19 01:12:34;;;;;;;5.32;3.10;;;;;;;27.11;46.78;101444.66;5095719;28;20064;-78
2022/07/19 01:15:11;;;;;;;3.67;2.90;;;;;;;27.13;46.75;101438.19;5095356;28;20067;-79
2022/07/19 01:17:38;;;;;;;4.80;2.80;;;;;;;27.13;46.55;101439.03;5094411;28;20400;-79
2022/07/19 01:20:07;;;;;;;4.88;3.08;;;;;;;27.14;46.53;101442.59;5095372;28;20044;-79
2022/07/19 01:22:34;;;;;;;4.15;3.13;;;;;;;27.14;46.39;101443.44;5095600;28;20597;-79
2022/07/19 01:25:05;;;;;;;4.65;2.90;;;;;;;27.15;46.56;101445.16;5095007;28;20487;-79
2022/07/19 01:27:44;;;;;;;3.95;2.75;;;;;;;27.15;46.42;101445.16;5095293;28;20253;-79
2022/07/19 01:30:13;;;;;;;3.83;3.10;;;;;;;27.16;46.54;101438.72;5094180;28;20421;-79
2022/07/19 01:32:41;;;;;;;4.13;2.80;;;;;;;27.16;46.88;101443.31;5094904;28;20399;-79
2022/07/19 01:35:09;;;;;;;3.65;3.00;;;;;;;27.16;46.70;101449.59;5087461;28;20052;-79
2022/07/19 01:37:37;;;;;;;5.25;3.13;;;;;;;27.17;46.83;101445.84;5094746;28;20044;-79
2022/07/19 01:40:08;;;;;;;3.83;3.30;;;;;;;27.18;46.55;101436.66;5094378;28;20044;-79
2022/07/19 01:42:35;;;;;;;3.92;3.03;;;;;;;27.19;46.87;101441.09;5095085;28;20051;-79
2022/07/19 01:45:04;;;;;;;4.68;3.47;;;;;;;27.19;46.71;101434.81;5094203;28;20040;-79
2022/07/19 01:47:32;;;;;;;3.75;2.80;;;;;;;27.20;46.72;101436.50;5093434;28;20048;-79
2022/07/19 01:50:00;;;;;;;4.93;3.17;;;;;;;27.21;46.93;101436.31;5095122;28;20051;-79
2022/07/19 01:52:27;;;;;;;3.95;3.22;;;;;;;27.21;46.90;101433.59;5094890;28;20039;-79
2022/07/19 01:54:54;;;;;;;4.82;3.10;;;;;;;27.21;46.85;101438.19;5094221;28;20419;-80
2022/07/19 01:57:22;;;;;;;3.60;3.00;;;;;;;27.22;47.02;101435.28;5092270;28;20067;-79
2022/07/19 01:59:49;;;;;;;4.95;2.97;;;;;;;27.22;47.25;101431.72;5094341;28;20154;-80
2022/07/19 02:02:19;;;;;;;3.70;3.28;;;;;;;27.22;46.87;101429.84;5093200;28;20055;-80
2022/07/19 02:04:46;;;;;;;6.10;4.18;;;;;;;27.24;47.34;101429.72;5094127;28;20475;-78
2022/07/19 02:07:14;;;;;;;6.20;3.20;;;;;;;27.25;47.12;101431.41;5094348;28;20043;-79
2022/07/19 02:09:41;;;;;;;4.00;3.35;;;;;;;27.25;47.13;101429.53;5094242;28;20506;-78
2022/07/19 02:12:09;;;;;;;6.10;3.33;;;;;;;27.25;47.29;101432.25;5094461;28;20475;-79
2022/07/19 02:14:36;;;;;;;4.07;3.08;;;;;;;27.26;47.28;101436.66;5094904;28;20044;-79
2022/07/19 02:17:03;;;;;;;4.22;3.25;;;;;;;27.26;47.30;101427.66;5092635;28;20047;-79
2022/07/19 02:19:31;;;;;;;4.35;3.08;;;;;;;27.27;47.20;101432.09;5094159;28;20039;-79
2022/07/19 02:21:58;;;;;;;4.70;3.40;;;;;;;27.28;47.41;101437.34;5092490;28;20056;-79
2022/07/19 02:24:25;;;;;;;4.05;3.40;;;;;;;27.27;47.43;101434.81;5093816;28;20162;-79
2022/07/19 02:26:53;;;;;;;4.57;3.42;;;;;;;27.27;47.25;101435.66;5094047;28;20058;-79
2022/07/19 02:29:20;;;;;;;6.40;3.45;;;;;;;27.28;47.33;101441.94;5093924;28;20055;-79
2022/07/19 02:31:48;;;;;;;6.30;3.50;;;;;;;27.29;47.19;101443.63;5094003;28;20044;-80
2022/07/19 02:34:15;;;;;;;3.60;2.95;;;;;;;27.30;47.24;101442.59;5090710;28;20044;-79
2022/07/19 02:36:43;;;;;;;5.22;3.42;;;;;;;27.30;47.53;101448.03;5087943;28;20040;-80
2022/07/19 02:39:11;;;;;;;4.25;3.47;;;;;;;27.30;47.24;101445.31;5093539;28;20059;-80
2022/07/19 02:41:38;;;;;;;4.15;3.53;;;;;;;27.30;47.23;101445.31;5093800;28;20048;-79
2022/07/19 02:44:05;;;;;;;4.15;3.75;;;;;;;27.32;47.49;101454.19;5093874;28;20052;-79
2022/07/19 02:46:33;;;;;;;3.70;3.22;;;;;;;27.31;47.39;101444.34;5093499;28;20503;-80
2022/07/19 02:49:00;;;;;;;6.22;3.83;;;;;;;27.32;47.34;101448.75;5091695;28;20059;-80
2022/07/19 02:51:27;;;;;;;5.30;3.38;;;;;;;27.31;47.42;101442.47;5093640;28;20051;-79
2022/07/19 02:53:55;;;;;;;4.68;3.25;;;;;;;27.31;47.30;101439.75;5093549;28;20400;-79
2022/07/19 02:56:22;;;;;;;4.45;3.20;;;;;;;27.32;47.63;101444.16;5093078;28;20047;-79
2022/07/19 02:58:49;;;;;;;6.10;3.45;;;;;;;27.32;47.34;101449.59;5093296;28;20044;-78
2022/07/19 03:01:17;;;;;;;3.78;3.30;;;;;;;27.33;47.67;101454.00;5093278;28;20040;-79
2022/07/19 03:03:44;;;;;;;4.80;3.50;;;;;;;27.33;47.25;101453.16;5093166;28;20047;-78
2022/07/19 03:06:13;;;;;;;4.97;3.50;;;;;;;27.34;47.60;101457.56;5091481;28;20051;-78
2022/07/19 03:08:41;;;;;;;3.10;2.80;;;;;;;27.34;47.33;101463.00;5090584;28;20389;-78
2022/07/19 03:11:08;;;;;;;6.50;3.28;;;;;;;27.34;47.59;101460.28;5079863;28;20479;-78
2022/07/19 03:13:36;;;;;;;7.03;3.28;;;;;;;27.34;47.49;101454.84;5093297;28;20051;-79
2022/07/19 03:16:03;;;;;;;4.65;3.63;;;;;;;27.34;47.45;101460.28;5093293;28;20047;-80
2022/07/19 03:18:31;;;;;;;4.70;3.38;;;;;;;27.34;47.75;101460.28;5091691;28;20056;-79
2022/07/19 03:20:59;;;;;;;5.60;3.58;;;;;;;27.35;47.69;101467.44;5091668;28;20052;-79
2022/07/19 03:23:32;;;;;;;4.10;3.35;;;;;;;27.34;47.60;101469.28;5093749;28;20051;-79
2022/07/19 03:26:00;;;;;;;4.60;3.05;;;;;;;27.35;47.49;101473.72;5091846;28;20051;-80
2022/07/19 03:28:27;;;;;;;5.43;3.63;;;;;;;27.34;47.59;101471.16;5093010;28;20044;-79
2022/07/19 03:30:55;;;;;;;3.85;3.05;;;;;;;27.33;47.26;101466.75;5092854;28;20048;-79
2022/07/19 03:33:22;;;;;;;4.25;3.15;;;;;;;27.32;47.05;101473.22;5093236;28;20051;-79
2022/07/19 03:35:49;;;;;;;5.25;3.95;;;;;;;27.31;47.25;101474.25;5086430;28;20068;-79
2022/07/19 03:38:17;;;;;;;5.10;3.30;;;;;;;27.30;47.27;101478.78;5085039;28;20043;-79
2022/07/19 03:40:47;;;;;;;6.88;3.78;;;;;;;27.28;47.08;101469.97;5092801;28;20048;-79
2022/07/19 03:43:16;;;;;;;5.65;3.53;;;;;;;27.29;46.90;101473.53;5093228;28;20044;-80
2022/07/19 03:45:45;;;;;;;6.85;3.72;;;;;;;27.28;47.26;101478.13;5093067;28;20040;-80
2022/07/19 03:48:13;;;;;;;6.07;4.10;;;;;;;27.28;46.98;101482.72;5092815;28;20056;-80
2022/07/19 03:50:40;;;;;;;7.22;3.78;;;;;;;27.27;47.41;101479.16;5092678;28;20051;-79
2022/07/19 03:53:08;;;;;;;8.77;3.70;;;;;;;27.28;47.07;101490.88;5091251;28;20048;-80
2022/07/19 03:55:35;;;;;;;7.05;3.88;;;;;;;27.26;47.44;101490.19;5092824;28;20040;-80
2022/07/19 03:58:03;;;;;;;4.65;4.15;;;;;;;27.27;47.42;101494.63;5091449;28;20048;-80
2022/07/19 04:00:31;;;;;;;6.40;4.20;;;;;;;27.26;47.01;101499.19;5093022;28;20487;-81
2022/07/19 04:02:58;;;;;;;11.40;4.45;;;;;;;27.25;47.38;101496.66;5092781;28;20495;-80
2022/07/19 04:05:26;;;;;;;6.60;3.80;;;;;;;27.23;47.42;101495.97;5092886;28;20513;-80
2022/07/19 04:07:53;;;;;;;6.90;4.10;;;;;;;27.22;47.25;101500.53;5093019;28;20044;-80
2022/07/19 04:10:21;;;;;;;6.75;3.88;;;;;;;27.22;47.46;101507.84;5095231;28;20052;-80
2022/07/19 04:12:49;;;;;;;6.40;4.13;;;;;;;27.21;47.38;101509.72;5096683;28;20040;-80
2022/07/19 04:15:16;;;;;;;4.97;3.72;;;;;;;27.21;47.18;101507.00;5096571;28;20056;-79
2022/07/19 04:17:44;;;;;;;5.75;3.95;;;;;;;27.20;47.41;101502.59;5096251;28;20055;-79
2022/07/19 04:20:12;;;;;;;5.30;3.80;;;;;;;27.19;47.40;101509.06;5096662;28;20040;-79
2022/07/19 04:22:39;;;;;;;6.25;4.32;;;;;;;27.20;47.30;101509.91;5096222;28;20059;-79
2022/07/19 04:25:07;;;;;;;4.80;3.55;;;;;;;27.20;47.69;101507.19;5096033;28;20058;-78
2022/07/19 04:27:35;;;;;;;5.60;3.72;;;;;;;27.21;47.66;101517.03;5096575;28;20043;-78
2022/07/19 04:30:03;;;;;;;8.07;4.25;;;;;;;27.20;47.76;101515.34;5096021;28;20492;-78
2022/07/19 04:32:32;;;;;;;6.75;4.18;;;;;;;27.21;47.54;101517.88;5095982;28;20055;-79
2022/07/19 04:35:00;;;;;;;6.45;4.35;;;;;;;27.22;47.72;101513.28;5096127;28;20052;-79
2022/07/19 04:37:27;;;;;;;8.65;4.45;;;;;;;27.23;48.16;101515.00;5084053;28;20430;-79
2022/07/19 04:39:55;;;;;;;7.72;4.97;;;;;;;27.23;48.10;101509.56;5093516;28;20453;-79
2022/07/19 04:42:22;;;;;;;6.82;4.35;;;;;;;27.25;48.28;101521.13;5096277;28;20070;-79
2022/07/19 04:44:50;;;;;;;6.53;5.03;;;;;;;27.23;48.03;101523.16;5096067;28;20044;-79
2022/07/19 04:47:17;;;;;;;8.07;4.25;;;;;;;27.22;48.28;101525.00;5096320;28;20044;-79
2022/07/19 04:49:44;;;;;;;6.30;4.80;;;;;;;27.23;48.23;101524.00;5101898;28;20051;-79
2022/07/19 04:52:12;;;;;;;6.85;4.28;;;;;;;27.24;48.41;101533.00;5099650;28;20040;-78
2022/07/19 04:54:39;;;;;;;5.93;4.10;;;;;;;27.23;48.60;101523.16;5099606;28;20050;-78
2022/07/19 04:57:06;;;;;;;6.10;4.05;;;;;;;27.23;48.97;101528.59;5096216;28;20396;-78
2022/07/19 04:59:34;;;;;;;6.40;4.28;;;;;;;27.22;49.06;101519.56;5095124;28;20411;-78
2022/07/19 05:02:01;;;;;;;6.30;4.18;;;;;;;27.22;49.07;101525.00;5095611;28;20048;-78
2022/07/19 05:04:28;;;;;;;4.80;3.97;;;;;;;27.24;49.32;101527.56;5095604;28;20044;-78
2022/07/19 05:06:58;;;;;;;6.68;4.20;;;;;;;27.24;49.10;101525.69;5095754;28;20373;-78
2022/07/19 05:09:28;;;;;;;5.10;4.43;;;;;;;27.24;49.05;101533.84;5095898;28;20055;-77
2022/07/19 05:11:56;;;;;;;8.13;4.60;;;;;;;27.24;49.07;101530.28;5095249;28;20048;-78
2022/07/19 05:14:23;;;;;;;5.82;4.75;;;;;;;27.23;49.10;101520.44;5095585;28;20051;-79
2022/07/19 05:16:50;;;;;;;7.82;4.43;;;;;;;27.23;48.88;101525.88;5095210;28;20047;-79
2022/07/19 05:19:18;;;;;;;6.93;4.72;;;;;;;27.24;49.40;101533.00;5095992;28;20398;-79
2022/07/19 05:21:45;;;;;;;6.32;4.80;;;;;;;27.24;49.27;101531.13;5093672;28;20055;-79
2022/07/19 05:24:13;;;;;;;7.88;4.90;;;;;;;27.25;49.02;101524.69;5095692;28;20051;-80
2022/07/19 05:26:40;;;;;;;6.15;5.10;;;;;;;27.26;49.44;101525.53;5093590;28;20496;-79
2022/07/19 05:29:08;;;;;;;7.28;4.70;;;;;;;27.26;48.76;101530.97;5095433;28;20044;-79
2022/07/19 05:31:35;;;;;;;5.45;4.80;;;;;;;27.27;48.97;101538.97;5093433;28;20043;-80
2022/07/19 05:34:03;;;;;;;5.63;4.38;;;;;;;27.27;48.74;101525.38;5095466;28;20048;-80
2022/07/19 05:36:31;;;;;;;7.00;4.95;;;;;;;27.28;48.85;101537.09;5095885;28;20047;-79
2022/07/19 05:38:58;;;;;;;11.57;5.80;;;;;;;27.28;48.66;101529.78;5079921;28;20040;-79
2022/07/19 05:41:26;;;;;;;7.85;5.15;;;;;;;27.29;48.59;101530.63;5093356;28;20529;-79
2022/07/19 05:43:53;;;;;;;4.93;4.43;;;;;;;27.29;48.42;101530.63;5094987;28;20051;-79
2022/07/19 05:46:21;;;;;;;7.93;5.13;;;;;;;27.29;48.41;101530.63;5094613;28;20043;-79
2022/07/19 05:48:48;;;;;;;5.40;4.90;;;;;;;27.29;48.61;101536.91;5094766;28;20062;-78
2022/07/19 05:51:16;;;;;;;6.10;5.35;;;;;;;27.29;48.59;101541.50;5095175;28;20051;-79
2022/07/19 05:53:43;;;;;;;7.55;5.32;;;;;;;27.30;48.67;101543.19;5094654;28;20051;-79
2022/07/19 05:56:11;;;;;;;5.15;4.65;;;;;;;27.30;48.41;101543.19;5094919;28;20045;-78
2022/07/19 05:58:38;;;;;;;5.88;5.32;;;;;;;27.30;48.32;101543.19;5095115;28;20040;-79
2022/07/19 06:01:18;;;;;;;5.72;4.57;;;;;;;27.30;48.41;101544.03;5094335;28;20047;-79
2022/07/19 06:03:56;;;;;;;5.80;4.95;;;;;;;27.29;48.47;101546.94;5094992;28;20052;-79
2022/07/19 06:06:28;;;;;;;8.15;5.32;;;;;;;27.29;48.41;101545.06;5092655;28;20097;-79
2022/07/19 06:08:56;;;;;;;4.53;4.10;;;;;;;27.30;48.49;101541.31;5094778;28;20488;-79
2022/07/19 06:11:24;;;;;;;8.70;5.60;;;;;;;27.31;48.62;101547.66;5094808;28;20035;-80
2022/07/19 06:13:52;;;;;;;5.50;4.63;;;;;;;27.31;48.34;101545.78;5092693;28;20048;-80
2022/07/19 06:16:20;;;;;;;8.00;5.15;;;;;;;27.32;48.52;101550.19;5094285;28;20040;-80
2022/07/19 06:18:48;;;;;;;5.97;5.30;;;;;;;27.33;48.62;101542.88;5093515;28;20052;-80
2022/07/19 06:21:18;;;;;;;5.68;5.03;;;;;;;27.34;48.67;101542.69;5094984;28;20051;-80
2022/07/19 06:23:46;;;;;;;5.45;4.85;;;;;;;27.35;48.51;101549.00;5094357;28;20059;-78
2022/07/19 06:26:14;;;;;;;11.18;5.65;;;;;;;27.35;49.01;101544.41;5095453;28;20055;-81
2022/07/19 06:28:41;;;;;;;10.45;6.20;;;;;;;27.35;48.76;101546.28;5093166;28;20052;-81
2022/07/19 06:31:10;;;;;;;8.10;5.90;;;;;;;27.34;48.56;101548.13;5095152;28;20055;-81
2022/07/19 06:33:43;;;;;;;8.35;6.22;;;;;;;27.32;48.49;101543.91;5092996;28;20048;-81
2022/07/19 06:36:14;;;;;;;6.32;5.72;;;;;;;27.30;48.64;101548.63;5095431;28;20522;-84
2022/07/19 06:38:43;;;;;;;7.72;6.15;;;;;;;27.31;48.79;101542.22;5094420;28;20048;-81
2022/07/19 06:41:11;;;;;;;7.88;5.50;;;;;;;27.31;48.95;101545.78;5093221;28;20043;-81
2022/07/19 06:43:40;;;;;;;7.28;5.78;;;;;;;27.31;49.18;101543.06;5093815;28;20450;-80
2022/07/19 06:46:07;;;;;;;11.45;5.00;;;;;;;27.33;48.98;101540.16;5094489;28;20503;-81
2022/07/19 06:48:35;;;;;;;7.75;5.25;;;;;;;27.33;48.69;101546.44;5093280;28;20047;-81
2022/07/19 06:51:04;;;;;;;7.18;5.63;;;;;;;27.35;48.38;101546.28;5093928;28;20040;-81
2022/07/19 06:53:32;;;;;;;7.30;5.55;;;;;;;27.36;48.51;101540.66;5094504;28;20040;-80
2022/07/19 06:55:59;;;;;;;6.97;5.28;;;;;;;27.37;48.73;101544.25;5094179;28;20423;-80
2022/07/19 06:58:28;;;;;;;12.45;6.40;;;;;;;27.38;48.04;101539.66;5093431;28;20068;-81
2022/07/19 07:00:56;;;;;;;7.05;5.25;;;;;;;27.40;48.35;101532.19;5093827;28;20044;-81
2022/07/19 07:03:24;;;;;;;6.82;4.88;;;;;;;27.40;48.23;101537.63;5094645;28;20408;-81
2022/07/19 07:05:52;;;;;;;6.63;5.07;;;;;;;27.40;47.89;101538.47;5094940;28;20067;-81
2022/07/19 07:08:19;;;;;;;8.20;5.55;;;;;;;27.42;47.90;101535.56;5093621;28;20043;-82
2022/07/19 07:10:47;;;;;;;7.93;5.25;;;;;;;27.41;47.90;101537.44;5093789;28;20484;-81
2022/07/19 07:13:14;;;;;;;6.50;5.13;;;;;;;27.42;47.49;101538.28;5093973;28;20044;-80
2022/07/19 07:15:43;;;;;;;6.95;5.15;;;;;;;27.41;48.10;101534.72;5092100;28;20078;-80
2022/07/19 07:18:11;;;;;;;6.97;5.13;;;;;;;27.43;48.15;101532.69;5094609;28;20036;-80
2022/07/19 07:20:38;;;;;;;7.80;5.13;;;;;;;27.43;48.11;101532.69;5091608;28;20059;-80
2022/07/19 07:23:06;;;;;;;7.97;5.43;;;;;;;27.44;48.07;101531.69;5093909;28;20055;-81
2022/07/19 07:25:33;;;;;;;8.45;5.65;;;;;;;27.45;48.32;101530.66;5093415;28;20498;-83
2022/07/19 07:28:00;;;;;;;6.22;4.88;;;;;;;27.46;46.88;101535.06;5093326;28;20040;-83
2022/07/19 07:30:28;;;;;;;6.45;5.00;;;;;;;27.45;46.02;101527.94;5092462;28;20051;-82
2022/07/19 07:32:55;;;;;;;6.13;4.78;;;;;;;27.46;44.99;101526.91;5092272;28;20139;-82
2022/07/19 07:35:23;;;;;;;5.82;4.55;;;;;;;27.45;44.34;101527.94;5094627;28;20036;-81
2022/07/19 07:37:50;;;;;;;6.40;4.30;;;;;;;27.45;44.22;101525.22;5091287;28;20052;-81
2022/07/19 07:40:19;;;;;;;6.45;4.75;;;;;;;27.44;45.01;101523.53;5092547;28;20389;-81
2022/07/19 07:42:47;;;;;;;4.70;4.13;;;;;;;27.47;45.41;101527.78;5093929;28;20047;-82
2022/07/19 07:45:14;;;;;;;7.00;4.38;;;;;;;27.46;45.90;101526.91;5100473;28;20051;-82
2022/07/19 07:47:41;;;;;;;5.13;4.43;;;;;;;27.47;45.86;101523.19;5101481;28;20040;-81
2022/07/19 07:50:11;;;;;;;6.38;4.60;;;;;;;27.47;45.69;101517.75;5098667;28;20391;-82
2022/07/19 07:52:39;;;;;;;5.32;4.30;;;;;;;27.47;45.26;101515.03;5081447;28;20059;-82
2022/07/19 07:55:15;;;;;;;5.90;4.40;;;;;;;27.48;44.30;101511.28;5100059;28;20395;-78
2022/07/19 07:57:55;;;;;;;7.40;4.38;;;;;;;27.51;43.94;101505.50;5100005;28;20396;-81
2022/07/19 08:00:23;;;;;;;4.13;3.15;;;;;;;27.54;41.99;101501.59;5098817;28;20044;-81
2022/07/19 08:02:50;;;;;;;5.20;3.60;;;;;;;27.56;40.32;101503.13;5100209;28;20048;-82
2022/07/19 08:05:21;;;;;;;6.85;3.58;;;;;;;27.59;41.09;101500.06;5099682;28;20518;-83
2022/07/19 08:07:50;;;;;;;6.13;3.35;;;;;;;27.61;40.45;101500.72;5099730;28;20044;-78
2022/07/19 08:10:22;;;;;;;4.35;3.25;;;;;;;27.66;38.62;101500.22;5100353;28;20055;-79
2022/07/19 08:12:50;;;;;;;5.03;3.10;;;;;;;27.73;37.89;101494.94;5081619;28;20419;-78
2022/07/19 08:15:18;;;;;;;3.58;2.92;;;;;;;27.74;38.76;101499.41;5100721;28;20040;-78
2022/07/19 08:17:45;;;;;;;3.55;3.10;;;;;;;27.74;39.53;101500.25;5099730;28;20044;-79
2022/07/19 08:20:13;;;;;;;3.33;3.03;;;;;;;27.73;39.63;101498.56;5099628;28;20407;-80
2022/07/19 08:22:41;;;;;;;5.63;3.28;;;;;;;27.73;39.80;101495.84;5099422;28;20040;-79
2022/07/19 08:25:09;;;;;;;5.10;3.67;;;;;;;27.72;40.00;101493.25;5100822;28;20052;-78
2022/07/19 08:27:43;;;;;;;5.78;3.50;;;;;;;27.71;39.98;101497.84;5098241;28;20048;-79
2022/07/19 08:30:12;;;;;;;4.68;3.40;;;;;;;27.71;39.86;101503.31;5099415;28;20055;-79
2022/07/19 08:32:40;;;;;;;4.75;3.13;;;;;;;27.71;39.45;101495.13;5099925;28;20044;-78
2022/07/19 08:35:09;;;;;;;5.85;3.22;;;;;;;27.71;39.68;101494.25;5099870;28;20048;-79
2022/07/19 08:37:38;;;;;;;5.07;3.53;;;;;;;27.72;40.07;101501.44;5100240;28;20369;-79
2022/07/19 08:40:07;;;;;;;4.60;3.20;;;;;;;27.72;40.12;101504.16;5098013;28;20395;-77
2022/07/19 08:42:35;;;;;;;4.43;3.15;;;;;;;27.72;38.85;101499.56;5098246;28;20051;-77
2022/07/19 08:45:08;;;;;;;4.10;3.20;;;;;;;27.74;39.51;101502.97;5098273;28;20048;-78
2022/07/19 08:47:37;;;;;;;5.93;2.92;;;;;;;27.74;39.17;101499.41;5099195;28;20040;-78
2022/07/19 08:50:07;;;;;;;5.55;2.60;;;;;;;27.74;38.54;101500.25;5099436;28;20100;-78
2022/07/19 08:52:35;;;;;;;4.07;3.40;;;;;;;27.74;38.38;101493.97;5099972;28;20051;-78
2022/07/19 08:55:05;;;;;;;4.10;3.30;;;;;;;27.74;38.11;101496.69;5096728;28;20044;-78
2022/07/19 09:00:18;;;;;;;3.70;3.10;;;;;;;27.74;38.96;101493.97;5096263;28;20517;-78
2022/07/19 09:03:01;;;;;;;3.88;3.05;;;;;;;27.74;39.03;101491.25;5095782;28;20048;-77
2022/07/19 09:05:29;;;;;;;3.50;3.17;;;;;;;27.74;38.98;101493.97;5095272;28;20052;-78
2022/07/19 09:08:12;;;;;;;4.85;3.05;;;;;;;27.75;38.36;101487.47;5095798;28;20044;-78
2022/07/19 09:10:43;;;;;;;3.53;2.95;;;;;;;27.79;38.16;101494.28;5096108;28;20472;-78
2022/07/19 09:13:12;;;;;;;5.53;3.00;;;;;;;27.79;37.98;101484.28;5094730;28;20046;-77
2022/07/19 09:15:42;;;;;;;5.55;2.78;;;;;;;27.81;38.25;101482.22;5095726;28;20048;-78
2022/07/19 09:18:11;;;;;;;4.18;2.78;;;;;;;27.82;38.61;101483.06;5095565;28;20052;-77
2022/07/19 09:20:39;;;;;;;6.00;2.40;;;;;;;27.84;37.10;101481.03;5096028;28;20833;-76
2022/07/19 09:23:07;;;;;;;6.63;2.70;;;;;;;27.88;36.04;101479.66;5094503;28;20537;-76
2022/07/19 09:25:41;;;;;;;3.70;2.58;;;;;;;27.90;37.32;101474.03;5095458;28;20044;-76
2022/07/19 09:28:09;;;;;;;5.93;2.67;;;;;;;27.91;37.56;101482.03;5095758;28;20067;-76
2022/07/19 09:30:40;;;;;;;5.32;2.53;;;;;;;27.93;37.91;101490.88;5095585;28;20051;-77
2022/07/19 09:33:20;;;;;;;3.35;2.65;;;;;;;27.94;37.63;101489.84;5095175;28;20059;-78
2022/07/19 09:35:54;;;;;;;3.45;2.72;;;;;;;27.93;37.79;101484.59;5095584;28;20052;-77
2022/07/19 09:38:24;;;;;;;3.63;2.75;;;;;;;27.93;38.08;101482.72;5095137;28;20044;-78
2022/07/19 09:41:07;;;;;;;3.92;2.70;;;;;;;27.92;38.54;101474.72;5095024;28;20411;-78
2022/07/19 09:43:58;;;;;;;4.78;2.90;;;;;;;27.92;38.30;101475.56;5095125;28;20395;-78
2022/07/19 09:46:44;;;;;;;4.70;2.47;;;;;;;27.92;38.10;101481.03;5095206;28;20407;-77
2022/07/19 09:49:14;;;;;;;3.78;2.80;;;;;;;27.92;38.12;101483.75;5094946;28;20476;-78
2022/07/19 09:51:43;;;;;;;3.88;2.75;;;;;;;27.92;38.22;101475.56;5094823;28;20502;-78
2022/07/19 09:54:16;;;;;;;3.65;2.35;;;;;;;27.93;38.18;101479.16;5093349;28;20059;-78
2022/07/19 09:56:45;;;;;;;3.60;2.90;;;;;;;27.93;38.53;101477.28;5094984;28;20051;-78
2022/07/19 09:59:13;;;;;;;5.97;3.00;;;;;;;27.93;38.89;101471.81;5093044;28;20036;-78
2022/07/19 10:01:40;;;;;;;3.03;2.53;;;;;;;27.93;38.60;101470.97;5095650;28;20040;-78
2022/07/19 10:04:12;;;;;;;6.38;3.42;;;;;;;27.94;37.49;101476.25;5095046;28;20044;-77
2022/07/19 10:06:42;;;;;;;4.20;2.88;;;;;;;27.97;36.86;101464.16;5076168;28;20059;-77
2022/07/19 10:09:12;;;;;;;3.40;2.90;;;;;;;27.98;37.20;101466.69;5094405;28;20048;-77
2022/07/19 10:11:40;;;;;;;4.03;2.75;;;;;;;28.00;36.95;101470.13;5093077;28;20056;-77
2022/07/19 10:14:09;;;;;;;4.20;2.50;;;;;;;28.03;36.90;101464.31;5095273;28;20044;-77
2022/07/19 10:16:39;;;;;;;3.15;2.83;;;;;;;28.05;37.40;101465.00;5093564;28;20043;-78
2022/07/19 10:19:19;;;;;;;4.50;2.85;;;;;;;28.05;37.38;101461.41;5093423;28;20036;-78
2022/07/19 10:21:48;;;;;;;4.50;2.90;;;;;;;28.06;37.16;101465.84;5094256;28;20048;-77
2022/07/19 10:24:41;;;;;;;4.68;3.15;;;;;;;28.06;37.55;101465.84;5094383;28;20047;-77
2022/07/19 10:27:08;;;;;;;4.88;2.65;;;;;;;28.05;37.42;101459.53;5094758;28;20051;-77
2022/07/19 10:29:36;;;;;;;3.40;2.92;;;;;;;28.06;37.46;101460.38;5094314;28;20043;-78
2022/07/19 10:32:06;;;;;;;3.92;2.97;;;;;;;28.06;37.53;101453.06;5092737;28;20056;-79
2022/07/19 10:34:33;;;;;;;3.75;2.30;;;;;;;28.06;37.74;101449.50;5094318;28;20047;-78
2022/07/19 10:37:01;;;;;;;4.53;2.72;;;;;;;28.14;37.31;101451.34;5095589;28;20052;-78
2022/07/19 10:39:38;;;;;;;4.88;2.85;;;;;;;28.14;38.27;101456.78;5094566;28;20522;-77
2022/07/19 10:42:21;;;;;;;4.13;3.72;;;;;;;28.14;38.40;101460.38;5094375;28;20499;-77
2022/07/19 10:44:55;;;;;;;4.80;2.60;;;;;;;28.13;38.57;101457.81;5098127;28;20055;-78
2022/07/19 10:47:31;;;;;;;3.47;2.60;;;;;;;28.10;38.97;101451.69;5098143;28;20048;-78
2022/07/19 10:50:05;;;;;;;3.38;2.80;;;;;;;28.10;38.68;101439.97;5095406;28;20047;-78
2022/07/19 10:52:38;;;;;;;4.97;2.40;;;;;;;28.07;38.83;101443.88;5094709;28;20059;-78
2022/07/19 10:55:22;;;;;;;3.88;2.75;;;;;;;28.08;38.95;101450.19;5094422;28;20048;-77
2022/07/19 10:58:08;;;;;;;3.58;2.50;;;;;;;28.07;39.39;101440.31;5091411;28;20052;-78
2022/07/19 11:00:47;;;;;;;3.53;2.65;;;;;;;28.07;39.00;101440.31;5093777;28;20039;-77
2022/07/19 11:03:28;;;;;;;3.47;3.00;;;;;;;28.06;39.56;101438.63;5093545;28;20047;-77
2022/07/19 11:06:01;;;;;;;4.57;2.78;;;;;;;28.06;39.34;101439.47;5093463;28;20400;-78
2022/07/19 11:08:36;;;;;;;;;;;;;;;28.05;39.32;101439.66;5093849;28;20048;-77
2022/07/19 11:11:08;;;;;;;3.55;2.33;;;;;;;28.05;39.35;101440.50;5093477;28;19927;-77
2022/07/19 11:13:38;;;;;;;4.82;2.95;;;;;;;28.04;39.59;101427.91;5093397;28;20396;-77
2022/07/19 11:16:06;;;;;;;3.58;2.72;;;;;;;28.05;39.93;101432.31;5093745;28;20048;-77
2022/07/19 11:18:34;;;;;;;3.35;2.42;;;;;;;28.05;39.83;101426.88;5093414;28;20075;-77
2022/07/19 11:21:04;;;;;;;3.40;2.50;;;;;;;28.03;39.90;101420.75;5093343;28;20052;-79
2022/07/19 11:23:38;;;;;;;3.60;2.60;;;;;;;28.04;40.07;101422.47;5092941;28;20071;-77
2022/07/19 11:26:10;;;;;;;3.05;2.60;;;;;;;28.04;40.15;101419.75;5091650;28;20170;-78
2022/07/19 11:28:40;;;;;;;4.63;2.88;;;;;;;28.06;40.17;101422.28;5093378;28;20059;-78
2022/07/19 11:31:21;;;;;;;5.60;3.13;;;;;;;28.05;40.06;101409.69;5092131;28;20044;-77
2022/07/19 11:34:02;;;;;;;;;;;;;;;;;;;;;
2022/07/19 11:36:56;;;;;;;4.15;2.60;;;;;;;28.05;40.14;101407.84;5091579;28;20058;-78
2022/07/19 11:39:24;;;;;;;3.20;2.72;;;;;;;28.05;40.19;101407.84;5094042;28;20052;-78